sensor_id;sensor_type;location;lat;lon;timestamp;temperature;humidity
18160;DHT22;9205;52.032;4.314;2023-06-22T00:01:27;18.00;1.00
18160;DHT22;9205;52.032;4.314;2023-06-22T00:03:55;18.00;1.00
18160;DHT22;9205;52.032;4.314;2023-06-22T00:06:22;18.00;10.60
18160;DHT22;9205;52.032;4.314;2023-06-22T00:08:53;17.90;22.80
18160;DHT22;9205;52.032;4.314;2023-06-22T00:11:21;18.00;40.80
18160;DHT22;9205;52.032;4.314;2023-06-22T00:13:51;18.10;37.40
18160;DHT22;9205;52.032;4.314;2023-06-22T00:16:18;18.00;23.60
18160;DHT22;9205;52.032;4.314;2023-06-22T00:18:46;18.10;26.10
18160;DHT22;9205;52.032;4.314;2023-06-22T00:21:14;18.00;36.80
18160;DHT22;9205;52.032;4.314;2023-06-22T00:23:42;18.00;36.40
18160;DHT22;9205;52.032;4.314;2023-06-22T00:26:11;17.90;40.40
18160;DHT22;9205;52.032;4.314;2023-06-22T00:28:38;17.90;56.90
18160;DHT22;9205;52.032;4.314;2023-06-22T00:31:05;17.80;89.00
18160;DHT22;9205;52.032;4.314;2023-06-22T00:33:33;17.80;99.90
18160;DHT22;9205;52.032;4.314;2023-06-22T00:36:04;17.80;99.90
18160;DHT22;9205;52.032;4.314;2023-06-22T00:38:33;17.80;99.90
18160;DHT22;9205;52.032;4.314;2023-06-22T00:41:01;17.80;99.90
18160;DHT22;9205;52.032;4.314;2023-06-22T00:43:30;17.90;99.90
18160;DHT22;9205;52.032;4.314;2023-06-22T00:45:57;17.90;99.90
18160;DHT22;9205;52.032;4.314;2023-06-22T00:48:25;17.90;99.90
18160;DHT22;9205;52.032;4.314;2023-06-22T00:50:53;17.80;99.90
18160;DHT22;9205;52.032;4.314;2023-06-22T00:53:25;17.80;99.90
18160;DHT22;9205;52.032;4.314;2023-06-22T00:55:54;17.80;99.90
18160;DHT22;9205;52.032;4.314;2023-06-22T00:58:25;17.80;99.90
18160;DHT22;9205;52.032;4.314;2023-06-22T01:00:54;17.80;99.90
18160;DHT22;9205;52.032;4.314;2023-06-22T01:03:22;17.70;99.90
18160;DHT22;9205;52.032;4.314;2023-06-22T01:05:50;17.70;99.90
18160;DHT22;9205;52.032;4.314;2023-06-22T01:08:29;17.80;99.90
18160;DHT22;9205;52.032;4.314;2023-06-22T01:11:09;17.80;99.90
18160;DHT22;9205;52.032;4.314;2023-06-22T01:13:45;17.70;99.90
18160;DHT22;9205;52.032;4.314;2023-06-22T01:16:23;17.60;99.90
18160;DHT22;9205;52.032;4.314;2023-06-22T01:18:55;17.70;99.90
18160;DHT22;9205;52.032;4.314;2023-06-22T01:21:30;17.60;99.90
18160;DHT22;9205;52.032;4.314;2023-06-22T01:24:11;17.60;99.90
18160;DHT22;9205;52.032;4.314;2023-06-22T01:26:57;17.70;99.90
18160;DHT22;9205;52.032;4.314;2023-06-22T01:29:33;17.60;99.90
18160;DHT22;9205;52.032;4.314;2023-06-22T01:32:05;17.60;99.90
18160;DHT22;9205;52.032;4.314;2023-06-22T01:34:36;17.50;99.90
18160;DHT22;9205;52.032;4.314;2023-06-22T01:37:06;17.50;99.90
18160;DHT22;9205;52.032;4.314;2023-06-22T01:39:35;17.60;99.90
18160;DHT22;9205;52.032;4.314;2023-06-22T01:42:04;17.50;99.90
18160;DHT22;9205;52.032;4.314;2023-06-22T01:44:36;17.50;99.90
18160;DHT22;9205;52.032;4.314;2023-06-22T01:47:04;17.50;99.90
18160;DHT22;9205;52.032;4.314;2023-06-22T01:49:36;17.50;99.90
18160;DHT22;9205;52.032;4.314;2023-06-22T01:52:08;17.50;99.90
18160;DHT22;9205;52.032;4.314;2023-06-22T01:54:39;17.50;99.90
18160;DHT22;9205;52.032;4.314;2023-06-22T01:57:07;17.40;99.90
18160;DHT22;9205;52.032;4.314;2023-06-22T01:59:51;17.50;99.90
18160;DHT22;9205;52.032;4.314;2023-06-22T02:02:28;17.40;99.90
18160;DHT22;9205;52.032;4.314;2023-06-22T02:05:05;17.40;99.90
18160;DHT22;9205;52.032;4.314;2023-06-22T02:07:44;17.40;99.90
18160;DHT22;9205;52.032;4.314;2023-06-22T02:10:17;17.40;99.90
18160;DHT22;9205;52.032;4.314;2023-06-22T02:12:48;17.50;99.90
18160;DHT22;9205;52.032;4.314;2023-06-22T02:15:20;17.40;99.90
18160;DHT22;9205;52.032;4.314;2023-06-22T02:17:53;17.40;99.90
18160;DHT22;9205;52.032;4.314;2023-06-22T02:20:21;17.40;99.90
18160;DHT22;9205;52.032;4.314;2023-06-22T02:22:51;17.40;99.90
18160;DHT22;9205;52.032;4.314;2023-06-22T02:25:18;17.40;99.90
18160;DHT22;9205;52.032;4.314;2023-06-22T02:27:46;17.40;99.90
18160;DHT22;9205;52.032;4.314;2023-06-22T02:30:16;17.30;99.90
18160;DHT22;9205;52.032;4.314;2023-06-22T02:32:45;17.30;99.90
18160;DHT22;9205;52.032;4.314;2023-06-22T02:35:15;17.40;99.90
18160;DHT22;9205;52.032;4.314;2023-06-22T02:37:44;17.40;99.90
18160;DHT22;9205;52.032;4.314;2023-06-22T02:40:12;17.40;99.90
18160;DHT22;9205;52.032;4.314;2023-06-22T02:42:39;17.30;99.90
18160;DHT22;9205;52.032;4.314;2023-06-22T02:45:08;17.40;99.90
18160;DHT22;9205;52.032;4.314;2023-06-22T02:47:36;17.30;99.90
18160;DHT22;9205;52.032;4.314;2023-06-22T02:50:06;17.30;99.90
18160;DHT22;9205;52.032;4.314;2023-06-22T02:52:35;17.30;99.90
18160;DHT22;9205;52.032;4.314;2023-06-22T02:55:05;17.30;99.90
18160;DHT22;9205;52.032;4.314;2023-06-22T02:57:34;17.30;99.90
18160;DHT22;9205;52.032;4.314;2023-06-22T03:00:03;17.20;99.90
18160;DHT22;9205;52.032;4.314;2023-06-22T03:02:43;17.20;99.90
18160;DHT22;9205;52.032;4.314;2023-06-22T03:05:13;17.30;99.90
18160;DHT22;9205;52.032;4.314;2023-06-22T03:07:44;17.20;99.90
18160;DHT22;9205;52.032;4.314;2023-06-22T03:10:14;17.20;99.90
18160;DHT22;9205;52.032;4.314;2023-06-22T03:12:43;17.20;99.90
18160;DHT22;9205;52.032;4.314;2023-06-22T03:15:12;17.20;99.90
18160;DHT22;9205;52.032;4.314;2023-06-22T03:17:40;17.20;99.90
18160;DHT22;9205;52.032;4.314;2023-06-22T03:20:09;17.20;99.90
18160;DHT22;9205;52.032;4.314;2023-06-22T03:22:40;17.30;99.90
18160;DHT22;9205;52.032;4.314;2023-06-22T03:25:09;17.20;99.90
18160;DHT22;9205;52.032;4.314;2023-06-22T03:27:39;17.20;99.90
18160;DHT22;9205;52.032;4.314;2023-06-22T03:30:10;17.20;99.90
18160;DHT22;9205;52.032;4.314;2023-06-22T03:32:38;17.20;99.90
18160;DHT22;9205;52.032;4.314;2023-06-22T03:35:07;17.20;99.90
18160;DHT22;9205;52.032;4.314;2023-06-22T03:37:36;17.10;99.90
18160;DHT22;9205;52.032;4.314;2023-06-22T03:40:07;17.10;99.90
18160;DHT22;9205;52.032;4.314;2023-06-22T03:42:35;17.10;99.90
18160;DHT22;9205;52.032;4.314;2023-06-22T03:45:03;17.20;99.90
18160;DHT22;9205;52.032;4.314;2023-06-22T03:47:34;17.20;99.90
18160;DHT22;9205;52.032;4.314;2023-06-22T03:50:02;17.20;99.90
18160;DHT22;9205;52.032;4.314;2023-06-22T03:52:31;17.20;99.90
18160;DHT22;9205;52.032;4.314;2023-06-22T03:55:02;17.10;99.90
18160;DHT22;9205;52.032;4.314;2023-06-22T03:57:31;17.10;99.90
18160;DHT22;9205;52.032;4.314;2023-06-22T04:00:00;17.10;99.90
18160;DHT22;9205;52.032;4.314;2023-06-22T04:02:38;17.10;99.90
18160;DHT22;9205;52.032;4.314;2023-06-22T04:05:06;17.10;99.90
18160;DHT22;9205;52.032;4.314;2023-06-22T04:07:34;17.10;99.90
18160;DHT22;9205;52.032;4.314;2023-06-22T04:10:03;17.20;99.90
18160;DHT22;9205;52.032;4.314;2023-06-22T04:12:34;17.20;99.90
18160;DHT22;9205;52.032;4.314;2023-06-22T04:15:02;17.20;99.90
18160;DHT22;9205;52.032;4.314;2023-06-22T04:17:30;17.20;99.90
18160;DHT22;9205;52.032;4.314;2023-06-22T04:19:57;17.30;99.90
18160;DHT22;9205;52.032;4.314;2023-06-22T04:22:25;17.30;99.90
18160;DHT22;9205;52.032;4.314;2023-06-22T04:24:52;17.30;99.90
18160;DHT22;9205;52.032;4.314;2023-06-22T04:27:22;17.20;99.90
18160;DHT22;9205;52.032;4.314;2023-06-22T04:29:57;17.30;99.90
18160;DHT22;9205;52.032;4.314;2023-06-22T04:32:26;17.30;99.90
18160;DHT22;9205;52.032;4.314;2023-06-22T04:34:53;17.30;99.90
18160;DHT22;9205;52.032;4.314;2023-06-22T04:37:20;17.20;99.90
18160;DHT22;9205;52.032;4.314;2023-06-22T04:39:49;17.30;99.90
18160;DHT22;9205;52.032;4.314;2023-06-22T04:42:16;17.40;99.90
18160;DHT22;9205;52.032;4.314;2023-06-22T04:44:44;17.50;99.90
18160;DHT22;9205;52.032;4.314;2023-06-22T04:47:13;17.50;99.90
18160;DHT22;9205;52.032;4.314;2023-06-22T04:49:40;17.70;99.90
18160;DHT22;9205;52.032;4.314;2023-06-22T04:52:10;17.80;99.90
18160;DHT22;9205;52.032;4.314;2023-06-22T04:54:40;17.80;99.90
18160;DHT22;9205;52.032;4.314;2023-06-22T04:57:14;17.80;99.90
18160;DHT22;9205;52.032;4.314;2023-06-22T04:59:42;18.00;99.90
18160;DHT22;9205;52.032;4.314;2023-06-22T05:02:10;18.00;99.90
18160;DHT22;9205;52.032;4.314;2023-06-22T05:04:38;18.10;99.90
18160;DHT22;9205;52.032;4.314;2023-06-22T05:07:06;18.20;99.90
18160;DHT22;9205;52.032;4.314;2023-06-22T05:09:34;18.20;99.90
18160;DHT22;9205;52.032;4.314;2023-06-22T05:12:02;18.20;99.90
18160;DHT22;9205;52.032;4.314;2023-06-22T05:14:30;18.30;99.90
18160;DHT22;9205;52.032;4.314;2023-06-22T05:16:57;18.40;99.90
18160;DHT22;9205;52.032;4.314;2023-06-22T05:19:31;18.50;99.90
18160;DHT22;9205;52.032;4.314;2023-06-22T05:21:59;18.40;99.90
18160;DHT22;9205;52.032;4.314;2023-06-22T05:24:26;18.50;99.90
18160;DHT22;9205;52.032;4.314;2023-06-22T05:26:53;18.50;99.90
18160;DHT22;9205;52.032;4.314;2023-06-22T05:29:21;18.50;99.90
18160;DHT22;9205;52.032;4.314;2023-06-22T05:31:49;18.50;99.90
18160;DHT22;9205;52.032;4.314;2023-06-22T05:34:17;18.60;99.90
18160;DHT22;9205;52.032;4.314;2023-06-22T05:36:46;18.60;99.90
18160;DHT22;9205;52.032;4.314;2023-06-22T05:39:14;18.60;99.90
18160;DHT22;9205;52.032;4.314;2023-06-22T05:41:46;18.60;99.90
18160;DHT22;9205;52.032;4.314;2023-06-22T05:44:14;18.70;99.90
18160;DHT22;9205;52.032;4.314;2023-06-22T05:46:42;18.70;99.90
18160;DHT22;9205;52.032;4.314;2023-06-22T05:49:12;18.70;99.90
18160;DHT22;9205;52.032;4.314;2023-06-22T05:51:40;18.70;99.90
18160;DHT22;9205;52.032;4.314;2023-06-22T05:54:10;18.70;99.90
18160;DHT22;9205;52.032;4.314;2023-06-22T05:56:39;18.70;99.90
18160;DHT22;9205;52.032;4.314;2023-06-22T05:59:06;18.80;99.90
18160;DHT22;9205;52.032;4.314;2023-06-22T06:01:36;18.80;99.90
18160;DHT22;9205;52.032;4.314;2023-06-22T06:04:05;18.90;99.90
18160;DHT22;9205;52.032;4.314;2023-06-22T06:06:34;18.80;99.90
18160;DHT22;9205;52.032;4.314;2023-06-22T06:09:03;18.90;99.90
18160;DHT22;9205;52.032;4.314;2023-06-22T06:11:32;18.90;99.90
18160;DHT22;9205;52.032;4.314;2023-06-22T06:14:01;19.00;97.60
18160;DHT22;9205;52.032;4.314;2023-06-22T06:16:28;19.00;80.20
18160;DHT22;9205;52.032;4.314;2023-06-22T06:18:55;19.00;58.10
18160;DHT22;9205;52.032;4.314;2023-06-22T06:21:24;19.10;52.40
18160;DHT22;9205;52.032;4.314;2023-06-22T06:23:51;19.10;50.40
18160;DHT22;9205;52.032;4.314;2023-06-22T06:26:19;19.10;44.90
18160;DHT22;9205;52.032;4.314;2023-06-22T06:28:53;19.20;37.80
18160;DHT22;9205;52.032;4.314;2023-06-22T06:31:21;19.20;31.90
18160;DHT22;9205;52.032;4.314;2023-06-22T06:33:49;19.20;31.60
18160;DHT22;9205;52.032;4.314;2023-06-22T06:36:17;19.20;28.90
18160;DHT22;9205;52.032;4.314;2023-06-22T06:38:44;19.30;25.80
18160;DHT22;9205;52.032;4.314;2023-06-22T06:41:13;19.30;30.70
18160;DHT22;9205;52.032;4.314;2023-06-22T06:43:41;19.40;39.30
18160;DHT22;9205;52.032;4.314;2023-06-22T06:46:10;19.40;31.30
18160;DHT22;9205;52.032;4.314;2023-06-22T06:48:38;19.50;28.60
18160;DHT22;9205;52.032;4.314;2023-06-22T06:51:05;19.40;15.40
18160;DHT22;9205;52.032;4.314;2023-06-22T06:53:35;19.50;11.40
18160;DHT22;9205;52.032;4.314;2023-06-22T06:56:03;19.50;11.50
18160;DHT22;9205;52.032;4.314;2023-06-22T06:58:31;19.50;8.40
18160;DHT22;9205;52.032;4.314;2023-06-22T07:01:08;19.60;6.80
18160;DHT22;9205;52.032;4.314;2023-06-22T07:03:36;19.70;4.60
18160;DHT22;9205;52.032;4.314;2023-06-22T07:06:04;19.80;2.00
18160;DHT22;9205;52.032;4.314;2023-06-22T07:08:31;19.80;1.00
18160;DHT22;9205;52.032;4.314;2023-06-22T07:10:59;19.90;1.00
18160;DHT22;9205;52.032;4.314;2023-06-22T07:13:26;20.00;1.00
18160;DHT22;9205;52.032;4.314;2023-06-22T07:15:54;20.00;1.00
18160;DHT22;9205;52.032;4.314;2023-06-22T07:18:23;20.10;1.00
18160;DHT22;9205;52.032;4.314;2023-06-22T07:20:52;20.20;1.00
18160;DHT22;9205;52.032;4.314;2023-06-22T07:23:20;20.20;1.00
18160;DHT22;9205;52.032;4.314;2023-06-22T07:25:47;20.20;1.00
18160;DHT22;9205;52.032;4.314;2023-06-22T07:28:16;20.30;1.00
18160;DHT22;9205;52.032;4.314;2023-06-22T07:30:45;20.40;1.00
18160;DHT22;9205;52.032;4.314;2023-06-22T07:33:13;20.50;1.00
18160;DHT22;9205;52.032;4.314;2023-06-22T07:35:45;20.60;1.00
18160;DHT22;9205;52.032;4.314;2023-06-22T07:38:13;20.60;1.00
18160;DHT22;9205;52.032;4.314;2023-06-22T07:40:41;20.70;1.00
18160;DHT22;9205;52.032;4.314;2023-06-22T07:43:09;20.80;1.00
18160;DHT22;9205;52.032;4.314;2023-06-22T07:45:37;20.90;1.00
18160;DHT22;9205;52.032;4.314;2023-06-22T07:48:06;20.90;1.00
18160;DHT22;9205;52.032;4.314;2023-06-22T07:50:34;21.00;1.00
18160;DHT22;9205;52.032;4.314;2023-06-22T07:53:03;21.10;1.00
18160;DHT22;9205;52.032;4.314;2023-06-22T07:55:30;21.20;1.00
18160;DHT22;9205;52.032;4.314;2023-06-22T07:57:57;21.30;1.00
18160;DHT22;9205;52.032;4.314;2023-06-22T08:00:25;21.40;1.00
18160;DHT22;9205;52.032;4.314;2023-06-22T08:02:53;21.40;1.00
18160;DHT22;9205;52.032;4.314;2023-06-22T08:05:20;21.50;1.00
18160;DHT22;9205;52.032;4.314;2023-06-22T08:07:48;21.50;1.00
18160;DHT22;9205;52.032;4.314;2023-06-22T08:10:17;21.60;99.90
18160;DHT22;9205;52.032;4.314;2023-06-22T08:12:46;21.70;99.90
18160;DHT22;9205;52.032;4.314;2023-06-22T08:15:13;21.70;94.10
18160;DHT22;9205;52.032;4.314;2023-06-22T08:17:40;21.70;83.20
18160;DHT22;9205;52.032;4.314;2023-06-22T08:20:09;21.80;1.00
18160;DHT22;9205;52.032;4.314;2023-06-22T08:22:38;21.90;1.00
18160;DHT22;9205;52.032;4.314;2023-06-22T08:25:07;21.90;1.00
18160;DHT22;9205;52.032;4.314;2023-06-22T08:27:36;22.00;1.00
18160;DHT22;9205;52.032;4.314;2023-06-22T08:30:09;22.00;1.00
18160;DHT22;9205;52.032;4.314;2023-06-22T08:32:40;22.10;1.00
18160;DHT22;9205;52.032;4.314;2023-06-22T08:35:09;22.10;1.00
18160;DHT22;9205;52.032;4.314;2023-06-22T08:37:37;22.20;99.90
18160;DHT22;9205;52.032;4.314;2023-06-22T08:40:07;22.30;99.90
18160;DHT22;9205;52.032;4.314;2023-06-22T08:42:39;22.30;1.00
18160;DHT22;9205;52.032;4.314;2023-06-22T08:45:08;22.50;99.90
18160;DHT22;9205;52.032;4.314;2023-06-22T08:47:36;22.50;28.80
18160;DHT22;9205;52.032;4.314;2023-06-22T08:50:05;22.60;1.00
18160;DHT22;9205;52.032;4.314;2023-06-22T08:52:34;22.70;1.00
18160;DHT22;9205;52.032;4.314;2023-06-22T08:55:04;22.80;28.90
18160;DHT22;9205;52.032;4.314;2023-06-22T08:57:32;22.90;1.00
18160;DHT22;9205;52.032;4.314;2023-06-22T09:00:01;22.90;1.00
18160;DHT22;9205;52.032;4.314;2023-06-22T09:02:30;23.00;1.00
18160;DHT22;9205;52.032;4.314;2023-06-22T09:04:58;23.20;1.00
18160;DHT22;9205;52.032;4.314;2023-06-22T09:07:25;23.20;1.00
18160;DHT22;9205;52.032;4.314;2023-06-22T09:09:53;23.20;1.00
18160;DHT22;9205;52.032;4.314;2023-06-22T09:12:20;23.30;1.00
18160;DHT22;9205;52.032;4.314;2023-06-22T09:14:52;23.30;1.00
18160;DHT22;9205;52.032;4.314;2023-06-22T09:17:22;23.40;1.00
18160;DHT22;9205;52.032;4.314;2023-06-22T09:19:50;23.30;99.90
18160;DHT22;9205;52.032;4.314;2023-06-22T09:22:17;23.50;1.00
18160;DHT22;9205;52.032;4.314;2023-06-22T09:24:48;23.50;1.00
18160;DHT22;9205;52.032;4.314;2023-06-22T09:27:16;23.60;99.90
18160;DHT22;9205;52.032;4.314;2023-06-22T09:29:43;23.70;99.90
18160;DHT22;9205;52.032;4.314;2023-06-22T09:32:13;23.70;1.00
18160;DHT22;9205;52.032;4.314;2023-06-22T09:34:42;23.70;1.00
18160;DHT22;9205;52.032;4.314;2023-06-22T09:37:12;23.80;1.00
18160;DHT22;9205;52.032;4.314;2023-06-22T09:39:39;23.80;1.00
18160;DHT22;9205;52.032;4.314;2023-06-22T09:42:07;23.90;1.00
18160;DHT22;9205;52.032;4.314;2023-06-22T09:44:39;24.00;1.00
18160;DHT22;9205;52.032;4.314;2023-06-22T09:47:10;24.00;1.00
18160;DHT22;9205;52.032;4.314;2023-06-22T09:49:42;24.00;1.00
18160;DHT22;9205;52.032;4.314;2023-06-22T09:52:09;24.00;1.00
18160;DHT22;9205;52.032;4.314;2023-06-22T09:54:38;24.10;1.00
18160;DHT22;9205;52.032;4.314;2023-06-22T09:57:05;24.20;1.00
18160;DHT22;9205;52.032;4.314;2023-06-22T09:59:37;24.30;1.00
18160;DHT22;9205;52.032;4.314;2023-06-22T10:02:06;24.20;1.00
18160;DHT22;9205;52.032;4.314;2023-06-22T10:04:33;24.30;1.00
18160;DHT22;9205;52.032;4.314;2023-06-22T10:07:03;24.30;1.00
18160;DHT22;9205;52.032;4.314;2023-06-22T10:09:31;24.40;1.00
18160;DHT22;9205;52.032;4.314;2023-06-22T10:11:59;24.40;1.00
18160;DHT22;9205;52.032;4.314;2023-06-22T10:14:26;24.50;1.00
18160;DHT22;9205;52.032;4.314;2023-06-22T10:16:55;24.50;1.00
18160;DHT22;9205;52.032;4.314;2023-06-22T10:19:23;24.60;1.00
18160;DHT22;9205;52.032;4.314;2023-06-22T10:21:53;24.60;1.00
18160;DHT22;9205;52.032;4.314;2023-06-22T10:24:22;24.60;1.00
18160;DHT22;9205;52.032;4.314;2023-06-22T10:26:50;24.70;1.00
18160;DHT22;9205;52.032;4.314;2023-06-22T10:29:21;24.70;1.00
18160;DHT22;9205;52.032;4.314;2023-06-22T10:31:49;24.80;1.00
18160;DHT22;9205;52.032;4.314;2023-06-22T10:34:17;24.60;1.00
18160;DHT22;9205;52.032;4.314;2023-06-22T10:36:44;24.50;1.00
18160;DHT22;9205;52.032;4.314;2023-06-22T10:39:14;24.40;1.00
18160;DHT22;9205;52.032;4.314;2023-06-22T10:41:43;24.40;1.00
18160;DHT22;9205;52.032;4.314;2023-06-22T10:44:10;24.50;1.00
18160;DHT22;9205;52.032;4.314;2023-06-22T10:46:40;24.30;1.00
18160;DHT22;9205;52.032;4.314;2023-06-22T10:49:09;24.40;1.00
18160;DHT22;9205;52.032;4.314;2023-06-22T10:51:38;24.40;1.00
18160;DHT22;9205;52.032;4.314;2023-06-22T10:54:21;24.20;1.00
18160;DHT22;9205;52.032;4.314;2023-06-22T10:56:50;24.30;1.00
18160;DHT22;9205;52.032;4.314;2023-06-22T10:59:21;24.40;1.00
18160;DHT22;9205;52.032;4.314;2023-06-22T11:06:17;24.30;1.00
18160;DHT22;9205;52.032;4.314;2023-06-22T11:09:29;24.30;1.00
18160;DHT22;9205;52.032;4.314;2023-06-22T11:17:25;24.30;1.00
18160;DHT22;9205;52.032;4.314;2023-06-22T11:21:04;24.30;1.00
18160;DHT22;9205;52.032;4.314;2023-06-22T11:28:25;24.30;1.00
18160;DHT22;9205;52.032;4.314;2023-06-22T12:03:22;24.00;1.00
18160;DHT22;9205;52.032;4.314;2023-06-22T12:19:03;24.00;1.00
18160;DHT22;9205;52.032;4.314;2023-06-22T12:22:45;24.00;99.90
18160;DHT22;9205;52.032;4.314;2023-06-22T12:29:55;23.90;99.90
18160;DHT22;9205;52.032;4.314;2023-06-22T12:41:24;23.80;99.90
18160;DHT22;9205;52.032;4.314;2023-06-22T12:43:53;23.90;99.90
18160;DHT22;9205;52.032;4.314;2023-06-22T12:47:20;23.80;1.00
18160;DHT22;9205;52.032;4.314;2023-06-22T12:50:36;23.80;1.00
18160;DHT22;9205;52.032;4.314;2023-06-22T13:35:36;23.60;1.00
18160;DHT22;9205;52.032;4.314;2023-06-22T13:51:33;23.70;1.00
18160;DHT22;9205;52.032;4.314;2023-06-22T14:02:43;23.60;1.00
18160;DHT22;9205;52.032;4.314;2023-06-22T14:05:44;23.60;1.00
18160;DHT22;9205;52.032;4.314;2023-06-22T14:13:13;23.60;1.00
18160;DHT22;9205;52.032;4.314;2023-06-22T14:28:25;23.60;1.00
18160;DHT22;9205;52.032;4.314;2023-06-22T14:30:52;23.50;1.00
18160;DHT22;9205;52.032;4.314;2023-06-22T14:33:19;23.50;1.00
18160;DHT22;9205;52.032;4.314;2023-06-22T14:35:46;23.50;1.00
18160;DHT22;9205;52.032;4.314;2023-06-22T14:38:17;23.50;1.00
18160;DHT22;9205;52.032;4.314;2023-06-22T14:40:45;23.40;1.00
18160;DHT22;9205;52.032;4.314;2023-06-22T14:43:13;23.40;42.10
18160;DHT22;9205;52.032;4.314;2023-06-22T14:45:44;23.30;31.60
18160;DHT22;9205;52.032;4.314;2023-06-22T14:48:13;23.20;1.00
18160;DHT22;9205;52.032;4.314;2023-06-22T14:50:41;23.20;99.90
18160;DHT22;9205;52.032;4.314;2023-06-22T14:53:09;23.00;99.90
18160;DHT22;9205;52.032;4.314;2023-06-22T14:55:36;23.10;99.90
18160;DHT22;9205;52.032;4.314;2023-06-22T14:58:04;23.10;99.90
18160;DHT22;9205;52.032;4.314;2023-06-22T15:00:31;23.00;99.90
18160;DHT22;9205;52.032;4.314;2023-06-22T15:03:02;23.00;99.90
18160;DHT22;9205;52.032;4.314;2023-06-22T15:05:32;23.00;1.00
18160;DHT22;9205;52.032;4.314;2023-06-22T15:08:00;22.90;1.00
18160;DHT22;9205;52.032;4.314;2023-06-22T15:10:29;22.90;1.00
18160;DHT22;9205;52.032;4.314;2023-06-22T15:12:56;22.90;1.00
18160;DHT22;9205;52.032;4.314;2023-06-22T15:15:27;22.80;1.00
18160;DHT22;9205;52.032;4.314;2023-06-22T15:17:54;22.70;1.00
18160;DHT22;9205;52.032;4.314;2023-06-22T15:20:23;22.60;1.00
18160;DHT22;9205;52.032;4.314;2023-06-22T15:22:51;22.60;1.00
18160;DHT22;9205;52.032;4.314;2023-06-22T15:25:18;22.50;1.00
18160;DHT22;9205;52.032;4.314;2023-06-22T15:27:45;22.50;1.00
18160;DHT22;9205;52.032;4.314;2023-06-22T15:30:12;22.50;1.00
18160;DHT22;9205;52.032;4.314;2023-06-22T15:32:43;22.30;1.00
18160;DHT22;9205;52.032;4.314;2023-06-22T15:35:11;22.20;1.00
18160;DHT22;9205;52.032;4.314;2023-06-22T15:37:41;22.20;1.00
18160;DHT22;9205;52.032;4.314;2023-06-22T15:40:09;22.30;1.00
18160;DHT22;9205;52.032;4.314;2023-06-22T15:42:38;22.20;1.00
18160;DHT22;9205;52.032;4.314;2023-06-22T15:45:06;22.20;1.00
18160;DHT22;9205;52.032;4.314;2023-06-22T15:47:36;22.10;1.00
18160;DHT22;9205;52.032;4.314;2023-06-22T15:50:04;22.00;1.00
18160;DHT22;9205;52.032;4.314;2023-06-22T15:52:32;21.80;1.00
18160;DHT22;9205;52.032;4.314;2023-06-22T15:55:04;21.70;1.00
18160;DHT22;9205;52.032;4.314;2023-06-22T15:57:33;21.60;1.00
18160;DHT22;9205;52.032;4.314;2023-06-22T16:00:01;21.70;1.00
18160;DHT22;9205;52.032;4.314;2023-06-22T16:02:33;21.60;1.00
18160;DHT22;9205;52.032;4.314;2023-06-22T16:05:00;21.50;1.00
18160;DHT22;9205;52.032;4.314;2023-06-22T16:07:28;21.50;1.00
18160;DHT22;9205;52.032;4.314;2023-06-22T16:09:58;21.50;1.00
18160;DHT22;9205;52.032;4.314;2023-06-22T16:12:27;21.50;1.00
18160;DHT22;9205;52.032;4.314;2023-06-22T16:14:55;21.40;1.00
18160;DHT22;9205;52.032;4.314;2023-06-22T16:17:22;21.40;1.00
18160;DHT22;9205;52.032;4.314;2023-06-22T16:19:52;21.30;1.00
18160;DHT22;9205;52.032;4.314;2023-06-22T16:22:21;21.20;1.00
18160;DHT22;9205;52.032;4.314;2023-06-22T16:24:49;21.20;1.00
18160;DHT22;9205;52.032;4.314;2023-06-22T16:27:18;21.20;1.00
18160;DHT22;9205;52.032;4.314;2023-06-22T16:29:47;21.20;1.00
18160;DHT22;9205;52.032;4.314;2023-06-22T16:32:14;21.20;1.00
18160;DHT22;9205;52.032;4.314;2023-06-22T16:34:43;21.20;1.00
18160;DHT22;9205;52.032;4.314;2023-06-22T16:37:11;21.20;1.00
18160;DHT22;9205;52.032;4.314;2023-06-22T16:39:39;21.20;1.00
18160;DHT22;9205;52.032;4.314;2023-06-22T16:42:06;21.30;1.00
18160;DHT22;9205;52.032;4.314;2023-06-22T16:44:34;21.30;1.00
18160;DHT22;9205;52.032;4.314;2023-06-22T16:47:04;21.40;1.00
18160;DHT22;9205;52.032;4.314;2023-06-22T16:49:31;21.40;1.00
18160;DHT22;9205;52.032;4.314;2023-06-22T16:51:59;21.40;1.00
18160;DHT22;9205;52.032;4.314;2023-06-22T16:54:28;21.20;1.00
18160;DHT22;9205;52.032;4.314;2023-06-22T16:56:59;21.00;1.00
18160;DHT22;9205;52.032;4.314;2023-06-22T16:59:29;20.90;1.00
18160;DHT22;9205;52.032;4.314;2023-06-22T17:01:57;20.90;1.00
18160;DHT22;9205;52.032;4.314;2023-06-22T17:04:29;20.80;1.00
18160;DHT22;9205;52.032;4.314;2023-06-22T17:07:07;20.90;1.00
18160;DHT22;9205;52.032;4.314;2023-06-22T17:09:37;21.00;1.00
18160;DHT22;9205;52.032;4.314;2023-06-22T17:12:07;20.90;1.00
18160;DHT22;9205;52.032;4.314;2023-06-22T17:14:39;20.90;1.00
18160;DHT22;9205;52.032;4.314;2023-06-22T17:17:10;21.00;1.00
18160;DHT22;9205;52.032;4.314;2023-06-22T17:19:40;21.00;1.00
18160;DHT22;9205;52.032;4.314;2023-06-22T17:22:07;21.00;1.00
18160;DHT22;9205;52.032;4.314;2023-06-22T17:24:35;21.00;1.00
18160;DHT22;9205;52.032;4.314;2023-06-22T17:27:04;21.00;1.00
18160;DHT22;9205;52.032;4.314;2023-06-22T17:29:32;21.10;1.00
18160;DHT22;9205;52.032;4.314;2023-06-22T17:32:01;21.10;1.00
18160;DHT22;9205;52.032;4.314;2023-06-22T17:34:31;21.10;1.00
18160;DHT22;9205;52.032;4.314;2023-06-22T17:37:01;21.00;1.00
18160;DHT22;9205;52.032;4.314;2023-06-22T17:39:28;21.10;1.00
18160;DHT22;9205;52.032;4.314;2023-06-22T17:41:56;21.10;1.00
18160;DHT22;9205;52.032;4.314;2023-06-22T17:44:25;21.20;1.00
18160;DHT22;9205;52.032;4.314;2023-06-22T17:46:55;21.20;1.00
18160;DHT22;9205;52.032;4.314;2023-06-22T17:49:26;21.20;1.00
18160;DHT22;9205;52.032;4.314;2023-06-22T17:51:55;21.20;1.00
18160;DHT22;9205;52.032;4.314;2023-06-22T17:54:29;21.20;1.00
18160;DHT22;9205;52.032;4.314;2023-06-22T17:56:57;21.20;1.00
18160;DHT22;9205;52.032;4.314;2023-06-22T17:59:28;21.20;1.00
18160;DHT22;9205;52.032;4.314;2023-06-22T18:01:56;21.20;99.90
18160;DHT22;9205;52.032;4.314;2023-06-22T18:04:25;21.20;99.90
18160;DHT22;9205;52.032;4.314;2023-06-22T18:06:53;21.20;99.90
18160;DHT22;9205;52.032;4.314;2023-06-22T18:09:24;21.20;99.90
18160;DHT22;9205;52.032;4.314;2023-06-22T18:11:54;21.20;99.90
18160;DHT22;9205;52.032;4.314;2023-06-22T18:14:26;21.10;99.90
18160;DHT22;9205;52.032;4.314;2023-06-22T18:16:55;21.10;1.00
18160;DHT22;9205;52.032;4.314;2023-06-22T18:19:23;21.10;1.00
18160;DHT22;9205;52.032;4.314;2023-06-22T18:21:51;21.10;1.00
18160;DHT22;9205;52.032;4.314;2023-06-22T18:24:19;21.10;1.00
18160;DHT22;9205;52.032;4.314;2023-06-22T18:26:49;21.10;1.00
18160;DHT22;9205;52.032;4.314;2023-06-22T18:29:17;20.90;1.00
18160;DHT22;9205;52.032;4.314;2023-06-22T18:31:46;21.00;1.00
18160;DHT22;9205;52.032;4.314;2023-06-22T18:34:13;20.90;1.00
18160;DHT22;9205;52.032;4.314;2023-06-22T18:36:43;20.90;1.00
18160;DHT22;9205;52.032;4.314;2023-06-22T18:39:16;21.00;1.00
18160;DHT22;9205;52.032;4.314;2023-06-22T18:41:50;20.90;1.00
18160;DHT22;9205;52.032;4.314;2023-06-22T18:44:21;20.90;1.00
18160;DHT22;9205;52.032;4.314;2023-06-22T18:46:53;20.80;1.00
18160;DHT22;9205;52.032;4.314;2023-06-22T18:49:24;20.70;1.00